Aviation Digital Data Service (ADDS)

Output produced by TAFs form (0212 UTC 21 April 2018)
found at http://aviationweather.gov/adds/tafs/
 
METAR text: RJBB 210200Z 36003KT CAVOK 20/12 Q1022 NOSIG
Conditions at: RJBB (KANSAI INTL , JP) observed 0200 UTC 21 April 2018
Temperature: 20.0°C (68°F)
Dewpoint: 12.0°C (54°F) [RH = 60%]
Pressure (altimeter): 30.18 inches Hg (1022.0 mb)
Winds: from the N (360 degrees) at 3 MPH (3 knots; 1.6 m/s)
Visibility: 6 or more miles (10+ km)
Ceiling: ceiling and visibility are OK
Clouds: unknown
Weather: no significant weather observed at this time

Forecast for: RJBB (KANSAI INTL , JP)
Text: TAF AMD RJBB 210102Z 2101/2206 35005KT CAVOK
Forecast period: 0100 to 0200 UTC 21 April 2018
Forecast type: FROM: standard forecast or significant change
Winds: from the N (350 degrees) at 6 MPH (5 knots; 2.6 m/s)
Visibility: 6 or more miles (10+ km)
Clouds: not forecast
Weather: NSW  (no significant weather)
Forecast for: RJBB (KANSAI INTL , JP)
Text: TAF AMD RJBB 210102Z 2101/2206 35005KT CAVOK
Forecast period: 0100 to 0200 UTC 21 April 2018
Forecast type: FROM: standard forecast or significant change
Winds: from the N (350 degrees) at 6 MPH (5 knots; 2.6 m/s)
Visibility: 6 or more miles (10+ km)
Clouds: not forecast
Weather: NSW  (no significant weather)
Forecast for: RJBB (KANSAI INTL , JP)
Text: TAF AMD RJBB 210102Z 2101/2206 35005KT CAVOK
Forecast period: 0200 UTC 21 April 2018 to 0600 UTC 22 April 2018
Forecast type: BECOMING: Conditions expected to become as follows by 0400 UTC 21 April 2018
Winds: from the SW (230 degrees) at 10 MPH (9 knots; 4.7 m/s)
Visibility: 6 or more miles (10+ km)
Weather: NSW  (no significant weather)
Forecast for: RJBB (KANSAI INTL , JP)
Text: TAF AMD RJBB 210102Z 2101/2206 35005KT CAVOK
Forecast period: 0200 UTC 21 April 2018 to 0600 UTC 22 April 2018
Forecast type: BECOMING: Conditions expected to become as follows by 0400 UTC 21 April 2018
Winds: from the SW (230 degrees) at 10 MPH (9 knots; 4.7 m/s)
Visibility: 6 or more miles (10+ km)
Weather: NSW  (no significant weather)